Time;durP1;ratioP1;P1;durP2;ratioP2;P2;SDS_P1;SDS_P2;PMS_P1;PMS_P2;Temp;Humidity;BMP_temperature;BMP_pressure;BME280_temperature;BME280_humidity;BME280_pressure;Samples;Min_cycle;Max_cycle;Signal;HPM_P1;HPM_P2
2023/12/26 00:01:54;;;;;;;13.63;3.45;;;11.70;94.50;;;;;;5051771;28;20131;-77
2023/12/26 00:04:20;;;;;;;14.57;3.17;;;11.60;94.90;;;;;;5055944;28;20063;-75
2023/12/26 00:06:46;;;;;;;15.90;3.20;;;11.60;95.10;;;;;;5052950;28;20129;-74
2023/12/26 00:09:12;;;;;;;15.73;3.72;;;11.50;95.40;;;;;;5058737;28;20025;-76
2023/12/26 00:11:45;;;;;;;11.55;3.28;;;11.50;95.70;;;;;;5055617;28;20039;-75
2023/12/26 00:14:12;;;;;;;13.15;2.70;;;11.50;95.80;;;;;;5054700;28;20525;-76
2023/12/26 00:16:39;;;;;;;11.68;3.03;;;11.50;95.80;;;;;;5055475;28;20079;-77
2023/12/26 00:19:05;;;;;;;14.60;3.42;;;11.40;95.80;;;;;;5053853;28;20040;-74
2023/12/26 00:21:31;;;;;;;13.90;3.47;;;11.40;95.90;;;;;;5054319;28;20040;-77
2023/12/26 00:23:57;;;;;;;11.93;2.80;;;11.40;96.00;;;;;;5033463;28;20256;-79
2023/12/26 00:26:23;;;;;;;14.73;3.25;;;11.40;96.10;;;;;;5052742;28;20481;-74
2023/12/26 00:28:48;;;;;;;11.82;3.15;;;11.40;96.20;;;;;;5052426;28;20037;-74
2023/12/26 00:31:14;;;;;;;11.55;3.10;;;11.40;96.20;;;;;;5052930;28;20167;-78
2023/12/26 00:33:40;;;;;;;10.85;3.50;;;11.40;96.20;;;;;;5054764;28;20020;-74
2023/12/26 00:36:11;;;;;;;9.15;2.40;;;11.40;96.30;;;;;;5054634;28;20048;-74
2023/12/26 00:38:37;;;;;;;18.45;2.90;;;11.30;96.30;;;;;;5054071;28;20027;-77
2023/12/26 00:41:02;;;;;;;11.15;3.28;;;11.40;96.50;;;;;;5060329;28;20028;-74
2023/12/26 00:43:28;;;;;;;10.75;3.17;;;11.30;96.60;;;;;;5056913;28;20524;-74
2023/12/26 00:45:54;;;;;;;11.45;3.28;;;11.30;96.60;;;;;;5052591;28;20049;-76
2023/12/26 00:48:19;;;;;;;9.25;2.50;;;11.30;96.70;;;;;;5038861;28;20031;-75
2023/12/26 00:50:45;;;;;;;14.52;3.25;;;11.30;96.70;;;;;;5055419;28;20111;-76
2023/12/26 00:53:11;;;;;;;13.45;3.47;;;11.30;96.80;;;;;;5055937;28;20341;-76
2023/12/26 00:55:36;;;;;;;12.73;3.22;;;11.30;96.80;;;;;;5055304;28;20044;-75
2023/12/26 00:58:03;;;;;;;11.10;3.00;;;11.30;96.90;;;;;;5057172;28;20385;-73
2023/12/26 01:00:28;;;;;;;13.50;3.35;;;11.30;97.00;;;;;;5054408;28;20060;-74
2023/12/26 01:02:54;;;;;;;8.10;2.75;;;11.30;97.00;;;;;;5052782;28;20060;-76
2023/12/26 01:05:20;;;;;;;7.97;2.70;;;11.30;97.20;;;;;;5056792;28;20528;-75
2023/12/26 01:07:46;;;;;;;9.88;2.97;;;11.30;97.20;;;;;;5054413;28;20117;-75
2023/12/26 01:10:12;;;;;;;10.85;2.97;;;11.20;97.20;;;;;;5055708;28;20028;-78
2023/12/26 01:12:37;;;;;;;12.35;3.70;;;11.20;97.30;;;;;;5053253;28;20028;-79
2023/12/26 01:15:04;;;;;;;8.90;2.95;;;11.20;97.30;;;;;;5052780;28;20152;-75
2023/12/26 01:17:29;;;;;;;11.57;3.40;;;11.20;97.30;;;;;;5051187;28;20033;-76
2023/12/26 01:19:56;;;;;;;10.48;3.47;;;11.20;97.40;;;;;;5055957;28;20036;-75
2023/12/26 01:22:22;;;;;;;9.98;3.90;;;11.20;97.40;;;;;;5049239;28;20472;-75
2023/12/26 01:24:51;;;;;;;11.43;3.22;;;11.20;97.50;;;;;;5050845;28;20033;-75
2023/12/26 01:27:16;;;;;;;9.70;3.80;;;11.20;97.50;;;;;;5049955;28;20036;-73
2023/12/26 01:29:42;;;;;;;10.65;3.15;;;11.20;97.60;;;;;;5051043;28;20071;-73
2023/12/26 01:32:07;;;;;;;9.98;3.70;;;11.20;97.70;;;;;;5058074;28;20036;-75
2023/12/26 01:34:33;;;;;;;12.55;3.70;;;11.10;97.80;;;;;;5050832;28;20040;-73
2023/12/26 01:36:59;;;;;;;13.05;3.85;;;11.10;98.00;;;;;;5050998;28;20500;-78
2023/12/26 01:39:26;;;;;;;11.18;3.15;;;11.10;98.10;;;;;;5052322;28;20538;-75
2023/12/26 01:41:52;;;;;;;14.18;3.67;;;11.10;98.10;;;;;;5053398;28;20488;-75
2023/12/26 01:44:17;;;;;;;9.18;3.00;;;11.20;98.10;;;;;;5053745;28;20032;-77
2023/12/26 01:46:43;;;;;;;9.43;3.60;;;11.10;98.20;;;;;;5053100;28;20028;-74
2023/12/26 01:49:10;;;;;;;8.45;3.50;;;11.10;98.30;;;;;;5057645;28;20157;-76
2023/12/26 01:51:36;;;;;;;10.65;3.70;;;11.20;98.30;;;;;;5055482;28;20113;-74
2023/12/26 01:54:02;;;;;;;10.48;3.92;;;11.10;98.40;;;;;;5056273;28;20062;-73
2023/12/26 01:56:29;;;;;;;12.05;3.78;;;11.10;98.40;;;;;;5055302;28;20129;-78
2023/12/26 01:58:55;;;;;;;12.07;3.28;;;11.10;98.40;;;;;;5050286;28;20037;-77
2023/12/26 02:01:21;;;;;;;9.50;3.47;;;11.10;98.50;;;;;;5051317;28;20400;-73
2023/12/26 02:03:47;;;;;;;9.10;3.53;;;11.10;98.50;;;;;;5054786;28;20047;-72
2023/12/26 02:06:16;;;;;;;10.98;3.72;;;11.10;98.60;;;;;;5050967;28;20471;-74
2023/12/26 02:08:41;;;;;;;11.38;3.85;;;11.10;98.60;;;;;;5052677;28;20025;-72
2023/12/26 02:11:07;;;;;;;10.45;3.83;;;11.20;98.70;;;;;;5052149;28;20182;-76
2023/12/26 02:13:36;;;;;;;12.05;4.30;;;11.20;98.60;;;;;;5031992;28;20046;-75
2023/12/26 02:16:10;;;;;;;10.60;4.10;;;11.10;98.60;;;;;;5058112;28;20048;-73
2023/12/26 02:18:36;;;;;;;15.23;4.65;;;11.20;98.70;;;;;;5057317;28;20024;-77
2023/12/26 02:21:04;;;;;;;12.32;4.53;;;11.20;98.60;;;;;;5039476;28;20028;-74
2023/12/26 02:23:31;;;;;;;10.60;4.50;;;11.20;98.70;;;;;;5054391;28;20036;-76
2023/12/26 02:25:58;;;;;;;10.52;4.05;;;11.10;98.80;;;;;;5054439;28;20041;-78
2023/12/26 02:28:24;;;;;;;14.60;4.43;;;11.10;98.80;;;;;;5072012;28;20027;-78
2023/12/26 02:30:51;;;;;;;12.07;4.28;;;11.10;98.70;;;;;;5069748;28;20350;-74
2023/12/26 02:33:17;;;;;;;11.68;4.13;;;11.10;98.70;;;;;;5070302;28;20261;-76
2023/12/26 02:35:44;;;;;;;12.35;3.90;;;11.10;98.70;;;;;;5037663;28;20109;-75
2023/12/26 02:38:10;;;;;;;12.10;3.70;;;11.10;98.70;;;;;;5052495;28;20041;-73
2023/12/26 02:40:36;;;;;;;14.18;3.65;;;11.20;98.80;;;;;;5054847;28;20041;-74
2023/12/26 02:43:01;;;;;;;12.30;3.65;;;11.20;98.70;;;;;;5038213;28;20048;-75
2023/12/26 02:45:27;;;;;;;13.52;3.40;;;11.20;98.70;;;;;;5056967;28;20040;-77
2023/12/26 02:47:52;;;;;;;11.77;3.83;;;11.20;98.60;;;;;;5058385;28;20374;-74
2023/12/26 02:50:18;;;;;;;11.38;3.55;;;11.30;98.60;;;;;;5060791;28;20121;-74
2023/12/26 02:52:44;;;;;;;10.77;3.30;;;11.30;98.50;;;;;;5057130;28;20146;-76
2023/12/26 02:55:09;;;;;;;13.40;4.28;;;11.30;98.50;;;;;;5055956;28;20025;-74
2023/12/26 02:57:35;;;;;;;12.38;4.40;;;11.30;98.50;;;;;;5040081;28;20028;-75
2023/12/26 03:00:01;;;;;;;12.40;4.18;;;11.20;98.40;;;;;;5060293;28;20040;-78
2023/12/26 03:02:26;;;;;;;12.38;4.00;;;11.30;98.50;;;;;;5060862;28;20041;-73
2023/12/26 03:04:52;;;;;;;10.73;3.60;;;11.20;98.40;;;;;;5057006;28;20048;-76
2023/12/26 03:07:18;;;;;;;8.18;2.70;;;11.20;98.50;;;;;;5057000;28;20037;-72
2023/12/26 03:09:43;;;;;;;14.75;4.57;;;11.30;98.40;;;;;;5057425;28;20111;-73
2023/12/26 03:12:09;;;;;;;9.07;3.60;;;11.30;98.20;;;;;;5038919;28;20044;-75
2023/12/26 03:14:35;;;;;;;10.98;4.53;;;11.30;98.20;;;;;;5060854;28;20042;-74
2023/12/26 03:17:00;;;;;;;13.43;3.88;;;11.30;98.20;;;;;;5063504;28;20035;-74
2023/12/26 03:19:26;;;;;;;8.07;3.10;;;11.30;98.20;;;;;;5063360;28;20032;-74
2023/12/26 03:21:51;;;;;;;10.90;4.00;;;11.30;98.20;;;;;;5059239;28;20032;-74
2023/12/26 03:24:17;;;;;;;10.40;3.17;;;11.30;98.10;;;;;;5057020;28;21455;-79
2023/12/26 03:26:43;;;;;;;12.77;3.75;;;11.30;98.10;;;;;;5053145;28;20534;-75
2023/12/26 03:29:08;;;;;;;13.52;3.97;;;11.40;98.10;;;;;;5064043;28;20032;-78
2023/12/26 03:31:39;;;;;;;10.15;3.58;;;11.40;98.00;;;;;;5069017;28;20091;-75
2023/12/26 03:34:06;;;;;;;11.40;4.15;;;11.40;98.00;;;;;;5064692;28;20033;-74
2023/12/26 03:36:32;;;;;;;11.57;3.60;;;11.40;97.90;;;;;;5058423;28;20033;-74
2023/12/26 03:38:57;;;;;;;8.88;3.03;;;11.40;97.90;;;;;;5053196;28;20253;-78
2023/12/26 03:41:23;;;;;;;10.38;3.63;;;11.40;97.90;;;;;;5075720;28;20036;-76
2023/12/26 03:43:49;;;;;;;11.65;3.65;;;11.40;97.90;;;;;;5074263;28;20129;-78
2023/12/26 03:46:14;;;;;;;11.02;3.03;;;11.40;97.90;;;;;;5074427;28;20082;-77
2023/12/26 03:48:40;;;;;;;11.43;3.00;;;11.40;97.90;;;;;;5055133;28;20016;-76
2023/12/26 03:51:05;;;;;;;11.07;3.13;;;11.30;97.90;;;;;;5049308;28;20129;-80
2023/12/26 03:53:31;;;;;;;13.82;3.72;;;11.30;97.90;;;;;;5067055;28;20109;-78
2023/12/26 03:55:57;;;;;;;10.93;3.22;;;11.30;97.90;;;;;;5065491;28;20554;-74
2023/12/26 03:58:22;;;;;;;9.07;3.40;;;11.30;98.00;;;;;;5071230;28;20029;-79
2023/12/26 04:00:48;;;;;;;11.90;3.67;;;11.40;98.00;;;;;;5072446;28;20827;-76
2023/12/26 04:03:15;;;;;;;14.50;3.67;;;11.30;98.00;;;;;;5073517;28;20024;-81
2023/12/26 04:05:41;;;;;;;16.95;3.83;;;11.30;98.00;;;;;;5077124;28;20071;-74
2023/12/26 04:08:06;;;;;;;16.80;3.95;;;11.30;98.10;;;;;;5068927;28;20092;-77
2023/12/26 04:10:32;;;;;;;13.57;4.00;;;11.30;98.20;;;;;;5066670;28;20048;-74
2023/12/26 04:12:58;;;;;;;12.25;3.30;;;11.30;98.20;;;;;;5034162;28;20017;-76
2023/12/26 04:15:24;;;;;;;16.98;3.88;;;11.30;98.10;;;;;;5057370;28;20149;-80
2023/12/26 04:17:50;;;;;;;15.25;3.35;;;11.30;98.20;;;;;;5053662;28;20020;-78
2023/12/26 04:20:15;;;;;;;13.77;3.90;;;11.30;98.10;;;;;;5056695;28;20084;-75
2023/12/26 04:22:41;;;;;;;11.55;3.15;;;11.30;98.00;;;;;;5058843;28;20020;-79
2023/12/26 04:25:07;;;;;;;15.00;3.90;;;11.20;97.90;;;;;;5058194;28;20136;-75
2023/12/26 04:27:33;;;;;;;13.18;3.10;;;11.20;97.90;;;;;;5060531;28;20032;-77
2023/12/26 04:29:58;;;;;;;15.75;3.53;;;11.30;97.80;;;;;;5055084;28;20064;-75
2023/12/26 04:32:26;;;;;;;12.30;3.97;;;11.30;97.70;;;;;;5058852;28;20028;-79
2023/12/26 04:34:52;;;;;;;11.55;3.10;;;11.30;97.70;;;;;;5050839;28;20508;-77
2023/12/26 04:37:18;;;;;;;9.60;2.65;;;11.20;97.60;;;;;;5050344;28;20103;-73
2023/12/26 04:39:43;;;;;;;16.83;4.03;;;11.20;97.60;;;;;;5059180;28;20039;-76
2023/12/26 04:42:09;;;;;;;12.48;3.38;;;11.20;97.50;;;;;;5055435;28;20904;-76
2023/12/26 04:44:35;;;;;;;10.70;3.53;;;11.10;97.50;;;;;;5047653;28;20064;-75
2023/12/26 04:47:00;;;;;;;12.65;3.10;;;11.10;97.50;;;;;;5037026;28;20090;-74
2023/12/26 04:49:26;;;;;;;11.32;3.00;;;11.10;97.50;;;;;;5053377;28;20115;-77
2023/12/26 04:51:52;;;;;;;15.65;3.08;;;11.10;97.30;;;;;;5054326;28;20461;-73
2023/12/26 04:54:17;;;;;;;15.15;3.25;;;11.10;97.30;;;;;;5055891;28;20435;-76
2023/12/26 04:56:43;;;;;;;17.38;3.10;;;11.10;97.10;;;;;;5060029;28;20284;-76
2023/12/26 04:59:09;;;;;;;21.23;3.88;;;11.00;97.00;;;;;;5058710;28;20035;-74
2023/12/26 05:01:42;;;;;;;14.27;3.03;;;10.90;96.90;;;;;;5050664;28;20040;-77
2023/12/26 05:04:09;;;;;;;13.20;2.67;;;10.90;96.70;;;;;;5053650;28;20029;-75
2023/12/26 05:06:35;;;;;;;16.08;3.30;;;10.90;96.60;;;;;;5057180;28;20063;-74
2023/12/26 05:09:02;;;;;;;18.17;3.95;;;10.90;96.50;;;;;;5050214;28;20082;-78
2023/12/26 05:11:27;;;;;;;15.23;3.25;;;10.90;96.30;;;;;;5053663;28;20093;-77
2023/12/26 05:13:53;;;;;;;11.32;2.45;;;11.00;95.90;;;;;;5054955;28;20028;-75
2023/12/26 05:16:20;;;;;;;14.90;3.00;;;11.00;95.70;;;;;;5040643;28;20040;-77
2023/12/26 05:18:45;;;;;;;12.45;2.72;;;11.00;95.60;;;;;;5059986;28;20021;-75
2023/12/26 05:21:21;;;;;;;16.02;3.28;;;11.00;95.60;;;;;;5057239;28;20131;-78
2023/12/26 05:23:48;;;;;;;16.65;3.00;;;10.90;95.50;;;;;;5052268;28;20025;-79
2023/12/26 05:26:15;;;;;;;16.02;2.63;;;10.90;95.60;;;;;;5051816;28;20151;-74
2023/12/26 05:28:40;;;;;;;15.20;3.15;;;10.90;95.60;;;;;;5050505;28;20035;-74
2023/12/26 05:31:06;;;;;;;13.98;2.60;;;10.90;95.50;;;;;;5039808;28;20040;-77
2023/12/26 05:33:32;;;;;;;14.93;3.22;;;10.80;95.60;;;;;;5047399;28;20028;-74
2023/12/26 05:35:59;;;;;;;11.45;2.80;;;10.80;95.60;;;;;;5050912;28;20064;-77
2023/12/26 05:38:25;;;;;;;15.00;2.85;;;10.70;95.70;;;;;;5047350;28;20114;-79
2023/12/26 05:40:50;;;;;;;13.07;2.65;;;10.70;95.70;;;;;;5053225;28;20041;-76
2023/12/26 05:43:16;;;;;;;18.33;3.78;;;10.70;95.60;;;;;;5049256;28;20039;-75
2023/12/26 05:45:42;;;;;;;14.10;3.65;;;10.70;95.60;;;;;;5051128;28;20307;-75
2023/12/26 05:48:08;;;;;;;12.68;2.75;;;10.70;95.50;;;;;;5058171;28;20107;-73
2023/12/26 05:50:33;;;;;;;9.57;2.15;;;10.70;95.30;;;;;;5051171;28;20427;-77
2023/12/26 05:52:59;;;;;;;15.55;2.78;;;10.70;95.10;;;;;;5051113;28;20024;-74
2023/12/26 05:55:25;;;;;;;9.95;2.33;;;10.60;94.80;;;;;;5055462;28;21703;-76
2023/12/26 05:57:51;;;;;;;10.30;2.20;;;10.60;94.20;;;;;;5058213;28;20060;-78
2023/12/26 06:00:17;;;;;;;10.50;2.33;;;10.60;93.50;;;;;;5046285;28;20392;-74
2023/12/26 06:02:42;;;;;;;8.27;2.33;;;10.50;93.00;;;;;;5054884;28;20043;-73
2023/12/26 06:05:08;;;;;;;12.02;2.63;;;10.40;91.60;;;;;;5055118;28;20043;-75
2023/12/26 06:07:34;;;;;;;14.15;2.15;;;10.40;91.00;;;;;;5057844;28;20119;-74
2023/12/26 06:10:00;;;;;;;9.55;2.35;;;10.40;90.10;;;;;;5053001;28;20489;-78
2023/12/26 06:12:26;;;;;;;10.85;2.50;;;10.40;89.90;;;;;;5053006;28;20127;-74
2023/12/26 06:14:52;;;;;;;10.82;2.90;;;10.30;89.70;;;;;;5053288;28;20069;-73
2023/12/26 06:17:19;;;;;;;9.80;2.42;;;10.20;89.00;;;;;;5054033;28;20453;-75
2023/12/26 06:19:45;;;;;;;10.85;2.45;;;10.20;89.00;;;;;;5051406;28;20020;-72
2023/12/26 06:22:12;;;;;;;13.30;2.58;;;10.20;88.80;;;;;;5053339;28;20041;-76
2023/12/26 06:24:37;;;;;;;9.75;2.20;;;10.20;88.30;;;;;;5056237;28;20044;-74
2023/12/26 06:27:05;;;;;;;7.65;1.98;;;10.30;87.90;;;;;;5038441;28;20457;-74
2023/12/26 06:29:30;;;;;;;10.85;2.35;;;10.20;87.90;;;;;;5051655;28;20023;-78
2023/12/26 06:31:56;;;;;;;10.93;2.50;;;10.20;87.70;;;;;;5059697;28;20440;-73
2023/12/26 06:34:21;;;;;;;13.00;2.72;;;10.10;87.90;;;;;;5050425;28;20017;-75
2023/12/26 06:36:47;;;;;;;13.90;3.13;;;10.10;87.00;;;;;;5041938;28;20036;-75
2023/12/26 06:39:13;;;;;;;12.00;3.00;;;10.10;87.10;;;;;;5062046;28;20461;-76
2023/12/26 06:41:40;;;;;;;15.10;3.28;;;10.00;86.80;;;;;;5040254;28;20033;-74
2023/12/26 06:44:05;;;;;;;11.18;2.42;;;10.00;86.50;;;;;;5053550;28;20265;-76
2023/12/26 06:46:31;;;;;;;15.18;2.53;;;10.10;85.80;;;;;;5056650;28;20388;-76
2023/12/26 06:48:57;;;;;;;9.88;2.72;;;10.00;85.80;;;;;;5042555;28;20453;-78
2023/12/26 06:51:22;;;;;;;11.70;2.42;;;10.00;85.80;;;;;;5061143;28;20028;-73
2023/12/26 06:53:48;;;;;;;11.32;2.50;;;10.00;86.20;;;;;;5058500;28;20107;-75
2023/12/26 06:56:14;;;;;;;10.90;2.33;;;9.90;86.20;;;;;;5054830;28;20029;-76
2023/12/26 06:58:39;;;;;;;12.10;2.70;;;9.80;86.30;;;;;;5059730;28;20008;-73
2023/12/26 07:01:09;;;;;;;11.07;2.55;;;9.80;86.60;;;;;;5053689;28;20449;-76
2023/12/26 07:03:35;;;;;;;12.85;2.60;;;9.70;86.90;;;;;;5052891;28;20023;-75
2023/12/26 07:06:00;;;;;;;16.77;3.72;;;9.60;86.80;;;;;;5055734;28;20040;-74
2023/12/26 07:08:26;;;;;;;15.43;2.90;;;9.60;86.90;;;;;;5060415;28;20449;-79
2023/12/26 07:10:52;;;;;;;12.25;3.30;;;9.60;86.50;;;;;;5049709;28;20047;-74
2023/12/26 07:13:18;;;;;;;12.15;2.97;;;9.60;86.60;;;;;;5036035;28;20377;-74
2023/12/26 07:15:44;;;;;;;12.07;2.78;;;9.60;86.80;;;;;;5062883;28;20068;-79
2023/12/26 07:18:10;;;;;;;16.15;2.83;;;9.60;87.00;;;;;;5078980;28;20271;-78
2023/12/26 07:20:35;;;;;;;13.63;3.00;;;9.60;87.20;;;;;;5071469;28;20048;-77
2023/12/26 07:23:01;;;;;;;12.48;2.97;;;9.50;87.50;;;;;;5064127;28;20051;-74
2023/12/26 07:25:29;;;;;;;15.57;3.78;;;9.50;87.80;;;;;;5054674;28;20509;-75
2023/12/26 07:27:55;;;;;;;20.80;3.80;;;9.40;88.30;;;;;;5058950;28;20409;-73
2023/12/26 07:30:20;;;;;;;12.52;2.92;;;9.40;88.50;;;;;;5037414;28;20029;-76
2023/12/26 07:32:46;;;;;;;11.82;2.85;;;9.40;88.90;;;;;;5055978;28;20505;-73
2023/12/26 07:35:11;;;;;;;17.15;3.70;;;9.30;89.10;;;;;;5053630;28;20109;-77
2023/12/26 07:37:37;;;;;;;16.40;3.22;;;9.30;89.40;;;;;;5062767;28;20095;-75
2023/12/26 07:40:03;;;;;;;16.85;3.05;;;9.20;89.70;;;;;;5059539;28;20484;-73
2023/12/26 07:42:29;;;;;;;15.07;3.13;;;9.20;89.90;;;;;;5040470;28;20441;-72
2023/12/26 07:44:56;;;;;;;11.07;2.92;;;9.10;90.30;;;;;;5052118;28;20067;-74
2023/12/26 07:47:22;;;;;;;16.90;3.25;;;9.20;90.30;;;;;;5053828;28;20123;-77
2023/12/26 07:49:48;;;;;;;13.48;3.47;;;9.10;90.40;;;;;;5051936;28;20028;-77
2023/12/26 07:52:14;;;;;;;14.63;3.55;;;9.10;90.70;;;;;;5054037;28;20362;-74
2023/12/26 07:54:39;;;;;;;10.32;2.90;;;9.10;90.90;;;;;;5054806;28;20035;-76
2023/12/26 07:57:05;;;;;;;11.88;3.08;;;9.10;91.10;;;;;;5052357;28;20037;-76
2023/12/26 07:59:31;;;;;;;14.45;3.03;;;9.10;91.20;;;;;;5053229;28;20051;-77
2023/12/26 08:01:57;;;;;;;12.73;3.55;;;9.10;91.20;;;;;;5040136;28;20386;-75
2023/12/26 08:04:22;;;;;;;14.55;3.25;;;9.10;91.40;;;;;;5052744;28;20032;-76
2023/12/26 08:06:48;;;;;;;16.63;3.45;;;9.10;91.40;;;;;;5052460;28;20033;-73
2023/12/26 08:09:14;;;;;;;13.63;2.85;;;9.10;91.40;;;;;;5060843;28;20020;-72
2023/12/26 08:11:39;;;;;;;9.88;2.55;;;9.10;91.50;;;;;;5053049;28;20028;-75
2023/12/26 08:14:05;;;;;;;15.20;3.30;;;9.10;91.50;;;;;;5056107;28;20028;-76
2023/12/26 08:16:31;;;;;;;13.70;2.78;;;9.10;91.50;;;;;;5058490;28;20036;-77
2023/12/26 08:18:58;;;;;;;14.40;2.90;;;9.20;91.30;;;;;;5058550;28;20436;-74
2023/12/26 08:21:24;;;;;;;13.35;3.00;;;9.20;91.20;;;;;;5058524;28;20129;-76
2023/12/26 08:23:50;;;;;;;12.13;3.25;;;9.10;91.40;;;;;;5058592;28;20747;-78
2023/12/26 08:26:16;;;;;;;13.82;3.60;;;9.20;91.40;;;;;;5049937;28;20033;-74
2023/12/26 08:28:42;;;;;;;16.85;3.53;;;9.10;91.50;;;;;;5053544;28;20103;-77
2023/12/26 08:31:07;;;;;;;13.23;3.28;;;9.20;91.50;;;;;;5036866;28;20590;-74
2023/12/26 08:33:35;;;;;;;14.95;3.15;;;9.20;91.60;;;;;;5049631;28;20048;-77
2023/12/26 08:36:01;;;;;;;10.95;2.90;;;9.20;91.60;;;;;;5053623;28;20124;-76
2023/12/26 08:38:28;;;;;;;12.30;3.10;;;9.20;91.60;;;;;;5055690;28;20021;-74
2023/12/26 08:40:54;;;;;;;17.17;2.97;;;9.30;91.60;;;;;;5051721;28;20473;-76
2023/12/26 08:43:19;;;;;;;13.02;3.40;;;9.40;91.70;;;;;;5054949;28;20484;-73
2023/12/26 08:45:45;;;;;;;18.92;3.28;;;9.40;91.60;;;;;;5051481;28;20083;-75
2023/12/26 08:48:11;;;;;;;12.20;3.92;;;9.50;91.70;;;;;;5057878;28;20052;-76
2023/12/26 08:50:37;;;;;;;13.38;3.47;;;9.50;91.70;;;;;;5049960;28;20033;-73
2023/12/26 08:53:03;;;;;;;15.43;3.05;;;9.60;91.60;;;;;;5055058;28;20024;-76
2023/12/26 08:55:29;;;;;;;15.60;3.33;;;9.60;91.40;;;;;;5050466;28;20028;-80
2023/12/26 08:57:54;;;;;;;12.77;3.92;;;9.70;90.90;;;;;;5051572;28;20032;-74
2023/12/26 09:00:20;;;;;;;12.10;3.03;;;9.70;90.90;;;;;;5047751;28;20035;-74
2023/12/26 09:02:46;;;;;;;16.08;3.40;;;9.70;90.70;;;;;;5056522;28;20108;-74
2023/12/26 09:05:12;;;;;;;16.63;2.90;;;9.70;90.60;;;;;;5053088;28;20209;-77
2023/12/26 09:07:38;;;;;;;17.15;4.30;;;9.70;90.50;;;;;;5053797;28;20045;-76
2023/12/26 09:10:05;;;;;;;21.80;3.53;;;9.70;90.40;;;;;;5041699;28;20043;-74
2023/12/26 09:12:31;;;;;;;14.73;3.38;;;9.70;90.10;;;;;;5056789;28;20055;-77
2023/12/26 09:14:57;;;;;;;17.25;3.33;;;9.80;89.80;;;;;;5051939;28;20053;-75
2023/12/26 09:17:22;;;;;;;13.48;3.25;;;9.80;89.60;;;;;;5054642;28;20055;-74
2023/12/26 09:19:48;;;;;;;14.38;3.70;;;9.80;89.20;;;;;;5057892;28;20029;-73
2023/12/26 09:22:14;;;;;;;15.55;3.28;;;9.90;89.00;;;;;;5051945;28;20517;-76
2023/12/26 09:24:43;;;;;;;14.27;3.25;;;9.90;88.70;;;;;;5051452;28;20032;-78
2023/12/26 09:27:09;;;;;;;15.20;3.33;;;10.00;88.50;;;;;;5057058;28;20036;-76
2023/12/26 09:29:35;;;;;;;16.88;3.25;;;10.00;88.30;;;;;;5053476;28;20028;-74
2023/12/26 09:32:01;;;;;;;15.73;3.38;;;10.00;87.90;;;;;;5049830;28;20056;-76
2023/12/26 09:34:26;;;;;;;18.55;3.22;;;9.90;87.90;;;;;;5047302;28;20816;-77
2023/12/26 09:36:53;;;;;;;17.05;3.30;;;9.90;88.00;;;;;;5033468;28;20044;-75
2023/12/26 09:39:18;;;;;;;16.35;3.45;;;9.90;87.80;;;;;;5055308;28;20029;-77
2023/12/26 09:41:51;;;;;;;15.10;3.25;;;9.90;87.50;;;;;;5044531;28;20037;-79
2023/12/26 09:44:16;;;;;;;16.90;3.78;;;9.80;87.90;;;;;;5054761;28;20023;-73
2023/12/26 09:46:42;;;;;;;16.75;3.13;;;9.80;88.00;;;;;;5053014;28;20044;-77
2023/12/26 09:49:09;;;;;;;19.35;3.40;;;9.70;87.70;;;;;;5056272;28;20052;-77
2023/12/26 09:51:40;;;;;;;23.27;3.90;;;9.70;87.90;;;;;;5047525;28;20457;-74
2023/12/26 09:54:07;;;;;;;16.08;3.38;;;9.60;87.80;;;;;;5046409;28;20111;-77
2023/12/26 09:56:37;;;;;;;18.75;3.78;;;9.60;87.70;;;;;;5050866;28;20416;-73
2023/12/26 09:59:03;;;;;;;16.40;3.30;;;9.60;87.90;;;;;;5053759;28;20120;-76
2023/12/26 10:01:29;;;;;;;11.68;2.80;;;9.60;87.70;;;;;;5050582;28;20041;-71
2023/12/26 10:03:56;;;;;;;17.50;3.90;;;9.60;87.60;;;;;;5053325;28;20233;-71
2023/12/26 10:06:22;;;;;;;16.23;3.35;;;9.60;87.70;;;;;;5053587;28;20067;-72
2023/12/26 10:08:48;;;;;;;14.82;3.33;;;9.50;87.80;;;;;;5053682;28;20029;-73
2023/12/26 10:11:14;;;;;;;11.45;3.03;;;9.60;87.80;;;;;;5054517;28;20059;-71
2023/12/26 10:13:44;;;;;;;15.88;3.08;;;9.50;87.80;;;;;;5053093;28;20063;-71
2023/12/26 10:16:10;;;;;;;20.00;4.00;;;9.60;87.80;;;;;;5052562;28;20048;-73
2023/12/26 10:18:37;;;;;;;9.63;2.97;;;9.60;87.70;;;;;;5032627;28;20025;-72
2023/12/26 10:21:03;;;;;;;17.50;3.63;;;9.60;87.70;;;;;;5046452;28;20029;-72
2023/12/26 10:23:29;;;;;;;14.45;3.95;;;9.60;87.70;;;;;;5046756;28;20016;-75
2023/12/26 10:25:55;;;;;;;15.13;3.15;;;9.60;87.60;;;;;;5044830;28;20057;-72
2023/12/26 10:28:21;;;;;;;13.00;4.20;;;9.60;87.60;;;;;;5053365;28;20036;-73
2023/12/26 10:30:46;;;;;;;15.93;3.55;;;9.60;87.40;;;;;;5045082;28;20041;-71
2023/12/26 10:33:26;;;;;;;17.42;3.70;;;9.60;87.30;;;;;;5057067;28;20032;-71
2023/12/26 10:36:05;;;;;;;12.57;3.42;;;9.60;87.50;;;;;;5034648;28;20450;-72
2023/12/26 10:38:31;;;;;;;11.82;2.28;;;9.60;87.50;;;;;;5052238;28;20012;-73
2023/12/26 10:41:12;;;;;;;18.48;3.60;;;9.80;87.40;;;;;;5052365;28;20036;-71
2023/12/26 10:43:42;;;;;;;18.15;3.40;;;9.90;86.90;;;;;;5052782;28;20111;-74
2023/12/26 10:46:08;;;;;;;18.50;3.05;;;10.00;86.40;;;;;;5049486;28;20045;-72
2023/12/26 10:48:35;;;;;;;16.60;2.97;;;10.10;86.30;;;;;;5050768;28;20036;-71
2023/12/26 10:51:01;;;;;;;17.45;3.17;;;10.30;85.90;;;;;;5051636;28;20542;-72
2023/12/26 10:53:48;;;;;;;15.93;3.33;;;10.40;85.30;;;;;;5036449;28;20385;-74
2023/12/26 10:56:15;;;;;;;13.27;3.35;;;10.60;84.80;;;;;;5046022;28;20036;-74
2023/12/26 10:58:41;;;;;;;14.48;3.78;;;10.60;84.30;;;;;;5055788;28;20544;-71
2023/12/26 13:53:27;;;;;;;16.00;4.38;;;10.50;84.80;;;;;;5053870;28;20040;-74
2023/12/26 13:56:31;;;;;;;15.13;3.47;;;10.60;84.80;;;;;;5034294;28;20409;-69
2023/12/26 13:59:34;;;;;;;15.63;4.45;;;10.70;84.60;;;;;;5052739;28;20807;-70
2023/12/26 14:02:37;;;;;;;17.15;4.05;;;10.70;84.30;;;;;;5048910;28;20319;-72
2023/12/26 14:05:40;;;;;;;15.95;3.97;;;10.60;84.50;;;;;;5047513;28;20555;-73
2023/12/26 14:08:43;;;;;;;17.98;4.20;;;10.60;84.40;;;;;;5050139;28;20048;-72
2023/12/26 14:11:46;;;;;;;18.13;4.32;;;10.60;84.50;;;;;;5053245;28;20546;-70
2023/12/26 14:14:49;;;;;;;14.98;3.38;;;10.60;84.90;;;;;;5051665;28;20061;-71
2023/12/26 14:17:52;;;;;;;19.95;4.40;;;10.60;84.60;;;;;;5055107;28;20086;-69
2023/12/26 14:20:55;;;;;;;18.08;4.30;;;10.60;84.80;;;;;;5052640;28;20123;-72
2023/12/26 14:23:59;;;;;;;20.05;4.68;;;10.50;85.10;;;;;;5023148;28;20189;-70
2023/12/26 14:27:03;;;;;;;18.48;3.95;;;10.50;85.00;;;;;;5053865;28;20508;-72
2023/12/26 14:30:06;;;;;;;13.88;3.58;;;10.40;85.40;;;;;;5055968;28;20328;-73
2023/12/26 14:32:31;;;;;;;19.63;4.35;;;10.40;85.60;;;;;;5047631;28;20043;-71
2023/12/26 14:34:58;;;;;;;19.38;3.95;;;10.40;85.30;;;;;;5055961;28;20032;-73
2023/12/26 14:37:24;;;;;;;17.60;4.13;;;10.40;85.50;;;;;;5052589;28;20036;-71
2023/12/26 14:39:49;;;;;;;19.95;4.15;;;10.40;85.60;;;;;;5054854;28;20028;-73
2023/12/26 14:42:15;;;;;;;17.25;4.13;;;10.50;85.70;;;;;;5052810;28;20037;-73
2023/12/26 14:44:41;;;;;;;17.60;3.97;;;10.50;85.30;;;;;;5055581;28;20654;-69
2023/12/26 14:47:06;;;;;;;24.73;5.18;;;10.50;85.10;;;;;;5056742;28;20052;-70
2023/12/26 14:49:32;;;;;;;20.73;5.32;;;10.50;85.50;;;;;;5057116;28;20500;-70
2023/12/26 14:51:57;;;;;;;15.88;3.75;;;10.40;85.70;;;;;;5057249;28;20029;-71
2023/12/26 14:54:23;;;;;;;20.63;4.88;;;10.50;85.90;;;;;;5054739;28;20028;-73
2023/12/26 14:56:49;;;;;;;24.30;4.50;;;10.40;85.60;;;;;;5056365;28;20050;-71
2023/12/26 14:59:14;;;;;;;15.77;3.55;;;10.50;85.60;;;;;;5057747;28;20025;-70
2023/12/26 15:01:40;;;;;;;20.88;4.28;;;10.40;85.70;;;;;;5054933;28;20395;-70
2023/12/26 15:04:05;;;;;;;15.30;3.85;;;10.30;85.90;;;;;;5060854;28;20029;-70
2023/12/26 15:06:31;;;;;;;15.50;3.80;;;10.30;86.00;;;;;;5056700;28;20091;-70
2023/12/26 15:08:57;;;;;;;18.05;3.95;;;10.30;86.00;;;;;;5053214;28;20029;-70
2023/12/26 15:11:22;;;;;;;16.42;4.00;;;10.20;86.10;;;;;;5052192;28;21149;-69
2023/12/26 15:13:48;;;;;;;19.23;3.67;;;10.10;86.40;;;;;;5055453;28;20032;-69
2023/12/26 15:16:20;;;;;;;19.55;4.47;;;10.00;86.70;;;;;;5054238;28;20832;-69
2023/12/26 15:18:46;;;;;;;14.82;3.80;;;10.00;86.80;;;;;;5036458;28;20755;-71
2023/12/26 15:21:12;;;;;;;15.88;4.13;;;9.90;86.80;;;;;;5055911;28;20043;-73
2023/12/26 15:23:38;;;;;;;21.27;4.55;;;9.90;87.00;;;;;;5054131;28;20012;-71
2023/12/26 15:26:14;;;;;;;19.90;4.15;;;9.80;87.00;;;;;;5053822;28;20064;-70
2023/12/26 15:28:43;;;;;;;15.60;3.70;;;9.70;87.10;;;;;;5056533;28;20024;-70
2023/12/26 15:31:15;;;;;;;17.05;4.10;;;9.60;87.40;;;;;;5052053;28;20480;-74
2023/12/26 15:33:44;;;;;;;14.38;3.33;;;9.60;87.60;;;;;;5053170;28;20016;-69
2023/12/26 15:36:21;;;;;;;18.10;5.07;;;9.50;87.80;;;;;;5060837;28;20045;-70